Time;durP1;ratioP1;P1;durP2;ratioP2;P2;SDS_P1;SDS_P2;PMS_P1;PMS_P2;Temp;Humidity;BMP_temperature;BMP_pressure;BME280_temperature;BME280_humidity;BME280_pressure;Samples;Min_cycle;Max_cycle;Signal;HPM_P1;HPM_P2
2023/01/13 00:01:24;;;;;;;0.10;0.10;;;13.70;99.90;;;;;;4910841;29;20182;-71
2023/01/13 00:03:55;;;;;;;0.10;0.10;;;13.70;99.90;;;;;;4902282;29;20241;-71
2023/01/13 00:06:24;;;;;;;0.10;0.10;;;13.70;99.90;;;;;;4902424;29;20175;-72
2023/01/13 00:08:51;;;;;;;0.22;0.20;;;13.70;99.90;;;;;;4902273;29;20187;-73
2023/01/13 00:11:18;;;;;;;0.10;0.10;;;13.70;99.90;;;;;;4902121;29;20234;-72
2023/01/13 00:13:44;;;;;;;0.03;0.03;;;13.70;99.90;;;;;;4902161;29;20182;-71
2023/01/13 00:16:14;;;;;;;0.25;0.20;;;13.80;99.90;;;;;;4902156;29;20183;-71
2023/01/13 00:18:40;;;;;;;0.32;0.10;;;13.70;99.90;;;;;;4901960;29;20183;-72
2023/01/13 00:21:18;;;;;;;0.28;0.10;;;13.70;99.90;;;;;;4902288;29;20191;-70
2023/01/13 00:23:44;;;;;;;1.35;0.10;;;13.70;99.90;;;;;;4900449;29;20214;-70
2023/01/13 00:26:16;;;;;;;0.00;0.00;;;13.60;99.90;;;;;;4902068;29;20231;-71
2023/01/13 00:28:42;;;;;;;0.10;0.10;;;13.50;99.90;;;;;;4901734;29;20238;-71
2023/01/13 00:31:11;;;;;;;0.10;0.10;;;13.50;99.90;;;;;;4901618;29;20210;-72
2023/01/13 00:33:40;;;;;;;0.10;0.10;;;13.60;99.90;;;;;;4901380;29;20497;-72
2023/01/13 00:36:11;;;;;;;0.30;0.10;;;13.60;99.90;;;;;;4901429;29;20222;-73
2023/01/13 00:38:37;;;;;;;0.43;0.10;;;13.60;99.90;;;;;;4901261;29;20210;-72
2023/01/13 00:41:08;;;;;;;0.10;0.10;;;13.60;99.90;;;;;;4901629;29;20228;-72
2023/01/13 00:43:36;;;;;;;0.10;0.10;;;13.50;99.90;;;;;;4901093;29;20194;-71
2023/01/13 00:46:04;;;;;;;1.10;0.10;;;13.50;99.90;;;;;;4901448;29;20510;-72
2023/01/13 00:48:30;;;;;;;0.20;0.20;;;13.50;99.90;;;;;;4884914;29;20190;-73
2023/01/13 00:50:59;;;;;;;0.00;0.00;;;13.50;99.90;;;;;;4908387;29;20197;-72
2023/01/13 00:53:26;;;;;;;0.10;0.10;;;13.50;99.90;;;;;;4905576;29;20187;-72
2023/01/13 00:56:03;;;;;;;0.55;0.20;;;13.50;99.90;;;;;;4901293;29;20457;-71
2023/01/13 00:58:31;;;;;;;0.10;0.10;;;13.50;99.90;;;;;;4901127;29;20213;-72
2023/01/13 01:01:05;;;;;;;0.10;0.10;;;13.50;99.90;;;;;;4900864;29;20191;-72
2023/01/13 01:03:34;;;;;;;0.00;0.00;;;13.50;99.90;;;;;;4901378;29;20206;-71
2023/01/13 01:06:10;;;;;;;0.10;0.10;;;13.50;99.90;;;;;;4899899;29;20198;-73
2023/01/13 01:08:36;;;;;;;0.85;0.10;;;13.50;99.90;;;;;;4901215;29;20466;-72
2023/01/13 01:11:04;;;;;;;0.10;0.10;;;13.50;99.90;;;;;;4902248;29;20229;-71
2023/01/13 01:13:36;;;;;;;0.10;0.10;;;13.50;99.90;;;;;;4901175;29;20182;-72
2023/01/13 01:16:12;;;;;;;0.10;0.10;;;13.50;99.90;;;;;;4894748;29;20187;-72
2023/01/13 01:18:43;;;;;;;0.00;0.00;;;13.50;99.90;;;;;;4882259;29;20203;-71
2023/01/13 01:21:10;;;;;;;0.10;0.10;;;13.40;99.90;;;;;;4882150;29;20175;-72
2023/01/13 01:23:36;;;;;;;0.57;0.20;;;13.30;99.90;;;;;;4891182;29;20260;-75
2023/01/13 01:26:03;;;;;;;0.10;0.10;;;13.20;99.90;;;;;;4887033;29;20210;-75
2023/01/13 01:28:29;;;;;;;0.10;0.10;;;13.00;99.90;;;;;;4901014;29;20179;-76
2023/01/13 01:31:04;;;;;;;0.10;0.10;;;12.80;99.90;;;;;;4916203;29;20183;-74
2023/01/13 01:33:29;;;;;;;0.52;0.20;;;12.70;99.90;;;;;;4897529;29;20211;-73
2023/01/13 01:36:00;;;;;;;0.60;0.40;;;12.50;99.90;;;;;;4916116;29;20182;-73
2023/01/13 01:38:28;;;;;;;0.47;0.30;;;12.30;99.90;;;;;;4901441;29;20409;-73
2023/01/13 01:40:56;;;;;;;0.95;0.30;;;12.00;99.90;;;;;;4901162;29;20179;-70
2023/01/13 01:44:01;;;;;;;0.55;0.32;;;11.80;99.90;;;;;;4900663;29;20201;-72
2023/01/13 01:46:30;;;;;;;0.82;0.30;;;11.60;99.90;;;;;;4900400;29;20242;-72
2023/01/13 01:49:07;;;;;;;0.22;0.20;;;11.40;99.90;;;;;;4881701;29;20180;-73
2023/01/13 01:51:48;;;;;;;0.70;0.30;;;11.30;99.90;;;;;;4898486;29;20182;-73
2023/01/13 01:54:29;;;;;;;0.30;0.22;;;11.30;99.90;;;;;;4900501;29;20233;-74
2023/01/13 01:56:57;;;;;;;1.45;0.30;;;11.20;99.90;;;;;;4900457;29;20175;-74
2023/01/13 01:59:25;;;;;;;0.57;0.30;;;11.20;99.90;;;;;;4900119;29;20186;-74
2023/01/13 02:01:51;;;;;;;1.40;0.30;;;11.20;99.90;;;;;;4899115;29;20186;-73
2023/01/13 02:04:23;;;;;;;1.02;0.40;;;11.20;99.90;;;;;;4904347;29;20214;-73
2023/01/13 02:06:53;;;;;;;0.98;0.40;;;11.30;99.90;;;;;;4899977;29;20261;-73
2023/01/13 02:09:19;;;;;;;0.40;0.30;;;11.40;99.90;;;;;;4900091;29;20182;-73
2023/01/13 02:14:51;;;;;;;1.15;0.50;;;11.40;99.90;;;;;;4871232;29;20200;-73
2023/01/13 02:18:21;;;;;;;0.75;0.30;;;11.40;99.90;;;;;;4861390;29;20212;-73
2023/01/13 02:20:49;;;;;;;0.85;0.20;;;11.40;99.90;;;;;;4824479;29;20271;-72
2023/01/13 02:27:11;;;;;;;1.00;0.20;;;11.30;99.90;;;;;;4900724;29;20342;-73
2023/01/13 02:32:52;;;;;;;0.32;0.30;;;11.30;99.90;;;;;;4881727;29;20179;-73
2023/01/13 02:35:21;;;;;;;0.38;0.30;;;11.30;99.90;;;;;;4888646;29;20273;-72
2023/01/13 02:37:50;;;;;;;0.40;0.20;;;11.30;99.90;;;;;;4901990;29;20219;-71
2023/01/13 02:40:16;;;;;;;0.95;0.60;;;11.20;99.90;;;;;;4910716;29;20382;-73
2023/01/13 02:46:13;;;;;;;0.40;0.22;;;11.20;99.90;;;;;;4900008;29;20182;-71
2023/01/13 02:48:40;;;;;;;0.70;0.30;;;11.20;99.90;;;;;;4905168;29;20210;-72
2023/01/13 02:51:14;;;;;;;1.95;0.30;;;11.20;99.90;;;;;;4899395;29;20202;-72
2023/01/13 02:54:03;;;;;;;0.57;0.25;;;11.20;99.90;;;;;;4899747;29;20190;-71
2023/01/13 02:56:36;;;;;;;0.10;0.10;;;11.20;99.90;;;;;;4889925;29;20210;-73
2023/01/13 02:59:03;;;;;;;0.40;0.20;;;11.20;99.90;;;;;;4902363;29;20380;-73
2023/01/13 03:01:28;;;;;;;1.38;0.30;;;11.20;99.90;;;;;;4903080;29;20246;-73
2023/01/13 03:03:54;;;;;;;2.15;0.40;;;11.10;99.90;;;;;;4902286;29;20228;-70
2023/01/13 03:06:21;;;;;;;0.70;0.20;;;11.20;99.90;;;;;;4901194;29;20186;-71
2023/01/13 03:09:14;;;;;;;0.95;0.30;;;11.20;99.90;;;;;;4902064;29;20202;-72
2023/01/13 03:11:58;;;;;;;1.00;0.30;;;11.20;99.90;;;;;;4900484;29;20175;-71
2023/01/13 03:14:40;;;;;;;1.23;0.43;;;11.20;99.90;;;;;;4899471;29;20200;-72
2023/01/13 03:17:17;;;;;;;0.50;0.20;;;11.20;99.90;;;;;;4899465;29;20184;-73
2023/01/13 03:20:05;;;;;;;0.75;0.30;;;11.10;99.90;;;;;;4880497;29;20171;-71
2023/01/13 03:22:36;;;;;;;1.33;0.30;;;11.10;99.90;;;;;;4888584;29;20230;-71
2023/01/13 03:25:23;;;;;;;0.70;0.30;;;11.10;99.90;;;;;;4899799;29;20185;-72
2023/01/13 03:28:03;;;;;;;0.80;0.32;;;11.10;99.90;;;;;;4899035;29;20170;-73
2023/01/13 03:30:57;;;;;;;0.35;0.22;;;11.10;99.90;;;;;;4900339;29;20221;-73
2023/01/13 03:33:29;;;;;;;0.95;0.30;;;11.10;99.90;;;;;;4899736;29;20193;-73
2023/01/13 03:36:00;;;;;;;2.05;0.50;;;11.10;99.90;;;;;;4900831;29;20266;-73
2023/01/13 03:38:55;;;;;;;1.33;0.50;;;11.10;99.90;;;;;;4900296;29;20175;-72
2023/01/13 03:41:30;;;;;;;1.02;0.47;;;11.00;99.90;;;;;;4910665;29;20179;-70
2023/01/13 03:44:23;;;;;;;2.25;0.40;;;11.00;99.90;;;;;;4920396;29;20198;-71
2023/01/13 03:47:08;;;;;;;0.85;0.40;;;11.00;99.90;;;;;;4919712;29;20199;-72
2023/01/13 03:49:45;;;;;;;2.60;0.68;;;11.00;99.90;;;;;;4916234;29;20162;-69
2023/01/13 03:52:18;;;;;;;1.70;0.70;;;11.00;99.90;;;;;;4918852;29;20178;-71
2023/01/13 03:54:53;;;;;;;3.42;0.73;;;11.00;99.90;;;;;;4900266;29;20199;-72
2023/01/13 03:57:25;;;;;;;1.65;0.50;;;11.00;99.90;;;;;;4898916;29;20222;-73
2023/01/13 03:59:56;;;;;;;1.92;0.52;;;10.90;99.90;;;;;;4899577;29;20238;-72
2023/01/13 04:02:39;;;;;;;2.90;0.70;;;11.00;99.90;;;;;;4899603;29;20231;-72
2023/01/13 04:05:10;;;;;;;3.10;0.90;;;10.90;99.90;;;;;;4899310;29;20195;-72
2023/01/13 04:07:45;;;;;;;3.13;0.80;;;11.00;99.90;;;;;;4899155;29;20175;-72
2023/01/13 04:10:25;;;;;;;3.08;1.00;;;11.00;99.90;;;;;;4898400;29;20183;-71
2023/01/13 04:13:07;;;;;;;2.70;0.77;;;11.00;99.90;;;;;;4898704;29;20292;-71
2023/01/13 04:15:39;;;;;;;4.82;0.80;;;11.10;99.90;;;;;;4898601;29;20174;-71
2023/01/13 04:18:14;;;;;;;3.45;0.90;;;11.00;99.90;;;;;;4898264;29;20209;-71
2023/01/13 04:20:42;;;;;;;3.88;0.70;;;11.00;99.90;;;;;;4896351;29;20215;-71
2023/01/13 04:23:12;;;;;;;2.17;0.82;;;11.00;99.90;;;;;;4902962;29;20207;-71
2023/01/13 04:25:38;;;;;;;3.22;0.85;;;11.00;99.90;;;;;;4898455;29;20186;-71
2023/01/13 04:28:06;;;;;;;5.78;1.25;;;10.90;99.90;;;;;;4898388;29;20179;-71
2023/01/13 04:30:34;;;;;;;2.85;1.10;;;11.00;99.90;;;;;;4913879;29;20191;-71
2023/01/13 04:33:00;;;;;;;3.85;0.90;;;10.90;99.90;;;;;;4898460;29;20178;-71
2023/01/13 04:35:26;;;;;;;4.13;1.10;;;10.90;99.90;;;;;;4898378;29;20186;-70
2023/01/13 04:37:54;;;;;;;3.23;0.97;;;10.90;99.90;;;;;;4897934;29;20183;-72
2023/01/13 04:40:20;;;;;;;5.57;1.40;;;10.80;99.90;;;;;;4889495;29;20184;-71
2023/01/13 04:42:45;;;;;;;4.27;1.00;;;10.80;99.90;;;;;;4898344;29;20271;-71
2023/01/13 04:45:12;;;;;;;4.32;1.02;;;10.80;99.90;;;;;;4901111;29;20207;-71
2023/01/13 04:47:37;;;;;;;4.20;1.37;;;10.70;99.90;;;;;;4912673;29;20217;-71
2023/01/13 04:50:08;;;;;;;4.30;1.53;;;10.70;99.90;;;;;;4901995;29;20206;-71
2023/01/13 04:52:34;;;;;;;4.18;1.13;;;10.70;99.90;;;;;;4901898;29;20208;-72
2023/01/13 04:55:02;;;;;;;6.90;1.50;;;10.70;99.90;;;;;;4924203;29;20262;-70
2023/01/13 04:57:32;;;;;;;6.50;1.50;;;10.70;99.90;;;;;;4914308;29;20186;-72
2023/01/13 04:59:57;;;;;;;6.28;1.30;;;10.70;99.90;;;;;;4902306;29;20295;-71
2023/01/13 05:02:23;;;;;;;5.68;1.38;;;10.70;99.90;;;;;;4901250;29;20297;-72
2023/01/13 05:04:51;;;;;;;5.43;1.40;;;10.70;99.90;;;;;;4898135;29;20191;-71
2023/01/13 05:07:17;;;;;;;4.70;1.20;;;10.80;99.90;;;;;;4898544;29;20183;-72
2023/01/13 05:09:45;;;;;;;6.75;1.30;;;10.70;99.90;;;;;;4901724;29;20207;-72
2023/01/13 05:17:42;;;;;;;4.67;1.20;;;10.70;99.90;;;;;;4902260;29;20213;-72
2023/01/13 05:20:09;;;;;;;3.58;1.20;;;10.70;99.90;;;;;;4901336;29;20209;-71
2023/01/13 05:25:21;;;;;;;4.40;1.10;;;10.60;99.90;;;;;;4902343;29;20182;-72
2023/01/13 05:27:58;;;;;;;4.13;1.05;;;10.60;99.90;;;;;;4908324;29;20179;-71
2023/01/13 05:30:27;;;;;;;4.23;1.40;;;10.50;99.90;;;;;;5061296;23;20224;-70
2023/01/13 05:32:52;;;;;;;5.05;1.33;;;10.60;99.90;;;;;;4941980;29;20187;-71
2023/01/13 05:35:18;;;;;;;4.68;1.40;;;10.50;99.90;;;;;;4938722;29;20201;-73
2023/01/13 05:37:48;;;;;;;5.50;1.35;;;10.50;99.90;;;;;;4938100;29;20184;-71
2023/01/13 05:43:23;;;;;;;4.77;1.07;;;10.40;99.90;;;;;;4939796;29;20433;-73
2023/01/13 05:46:01;;;;;;;2.53;0.90;;;10.40;99.90;;;;;;4938347;29;20248;-80
2023/01/13 05:48:29;;;;;;;2.77;1.10;;;10.40;99.90;;;;;;4938714;29;20177;-81
2023/01/13 05:50:55;;;;;;;4.30;1.35;;;10.40;99.90;;;;;;4931771;29;20185;-83
2023/01/13 05:53:22;;;;;;;4.25;1.20;;;10.30;99.90;;;;;;4940149;29;20205;-81
2023/01/13 05:55:48;;;;;;;4.50;1.00;;;10.40;99.90;;;;;;4938581;29;20192;-84
2023/01/13 05:58:15;;;;;;;2.33;0.95;;;10.40;99.90;;;;;;4938233;29;20180;-86
2023/01/13 06:00:41;;;;;;;3.00;1.00;;;10.40;99.90;;;;;;4938613;29;20221;-71
2023/01/13 06:03:10;;;;;;;2.67;0.85;;;10.40;99.90;;;;;;4937878;29;20200;-71
2023/01/13 06:05:39;;;;;;;2.20;0.77;;;10.40;99.90;;;;;;4929198;29;20252;-72
2023/01/13 06:08:06;;;;;;;4.63;1.10;;;10.40;99.90;;;;;;4943883;29;20172;-72
2023/01/13 06:10:32;;;;;;;3.57;1.00;;;10.40;99.90;;;;;;4956920;29;20188;-72
2023/01/13 06:12:58;;;;;;;3.97;1.00;;;10.40;99.90;;;;;;4945105;29;20359;-72
2023/01/13 06:15:24;;;;;;;3.45;1.00;;;10.30;99.90;;;;;;4919474;29;20285;-72
2023/01/13 06:17:50;;;;;;;3.03;1.00;;;10.40;99.90;;;;;;4918210;29;20238;-71
2023/01/13 06:20:16;;;;;;;3.67;0.90;;;10.30;99.90;;;;;;4936544;29;20287;-72
2023/01/13 06:22:46;;;;;;;3.97;0.98;;;10.40;99.90;;;;;;4937569;29;20205;-72
2023/01/13 06:25:25;;;;;;;3.57;1.10;;;10.40;99.90;;;;;;4937792;29;20212;-72
2023/01/13 06:27:52;;;;;;;5.47;1.20;;;10.40;99.90;;;;;;4937146;29;20189;-71
2023/01/13 06:30:18;;;;;;;2.60;1.00;;;10.40;99.90;;;;;;4937356;29;20216;-73
2023/01/13 06:32:50;;;;;;;3.97;1.17;;;10.40;99.90;;;;;;4937855;29;20185;-72
2023/01/13 06:35:21;;;;;;;4.82;1.40;;;10.40;99.90;;;;;;4919564;29;20190;-72
2023/01/13 06:37:49;;;;;;;3.50;0.98;;;10.40;99.90;;;;;;4935998;29;20215;-72
2023/01/13 06:40:16;;;;;;;5.00;1.13;;;10.30;99.90;;;;;;4937377;29;20269;-71
2023/01/13 06:45:29;;;;;;;3.20;1.02;;;10.40;99.90;;;;;;4937623;29;20168;-72
2023/01/13 06:48:00;;;;;;;3.28;1.00;;;10.40;99.90;;;;;;4936609;29;20189;-72
2023/01/13 06:50:27;;;;;;;2.65;0.90;;;10.40;99.90;;;;;;4917633;29;20189;-71
2023/01/13 06:52:53;;;;;;;1.67;0.70;;;10.40;99.90;;;;;;4920782;29;20279;-72
2023/01/13 06:55:21;;;;;;;2.38;0.80;;;10.50;99.90;;;;;;4936638;29;20465;-71
2023/01/13 06:57:48;;;;;;;4.07;1.08;;;10.50;99.90;;;;;;4929776;29;20332;-71
2023/01/13 07:00:16;;;;;;;2.92;0.90;;;10.50;99.90;;;;;;4924595;29;20186;-72
2023/01/13 07:02:44;;;;;;;2.58;0.70;;;10.50;99.90;;;;;;4916762;29;20269;-71
2023/01/13 07:05:11;;;;;;;3.60;0.95;;;10.50;99.90;;;;;;4924996;29;20182;-72
2023/01/13 07:07:41;;;;;;;3.78;1.10;;;10.50;99.90;;;;;;4936801;29;20169;-72
2023/01/13 07:10:20;;;;;;;3.30;1.00;;;10.50;99.90;;;;;;4936562;29;20226;-70
2023/01/13 07:15:33;;;;;;;2.25;0.90;;;10.50;99.90;;;;;;4937414;29;20196;-71
2023/01/13 07:18:02;;;;;;;2.72;0.90;;;10.60;99.90;;;;;;4936285;29;20204;-70
2023/01/13 07:20:29;;;;;;;3.38;0.95;;;10.50;99.90;;;;;;4936315;29;20181;-71
2023/01/13 07:22:55;;;;;;;1.35;0.68;;;10.50;99.90;;;;;;4936360;29;20204;-72
2023/01/13 07:25:21;;;;;;;1.63;0.60;;;10.60;99.90;;;;;;4936647;29;20204;-72
2023/01/13 07:27:52;;;;;;;3.10;0.90;;;10.60;99.90;;;;;;4926211;29;20182;-71
2023/01/13 07:30:18;;;;;;;1.25;0.80;;;10.60;99.90;;;;;;4917426;29;20197;-71
2023/01/13 07:32:46;;;;;;;2.00;0.68;;;10.60;99.90;;;;;;4917740;29;20331;-71
2023/01/13 07:35:11;;;;;;;1.48;0.60;;;10.50;99.90;;;;;;4917774;29;20276;-70
2023/01/13 07:37:38;;;;;;;1.75;0.60;;;10.50;99.90;;;;;;4917576;29;20221;-71
2023/01/13 07:40:06;;;;;;;2.35;0.75;;;10.50;99.90;;;;;;4930602;29;20213;-70
2023/01/13 07:45:20;;;;;;;3.35;0.75;;;10.40;99.90;;;;;;4937310;29;20256;-70
2023/01/13 07:47:52;;;;;;;2.90;0.80;;;10.50;99.90;;;;;;4936277;29;20196;-71
2023/01/13 07:50:22;;;;;;;1.80;0.88;;;10.40;99.90;;;;;;4931960;29;20226;-71
2023/01/13 07:52:50;;;;;;;5.60;0.98;;;10.40;99.90;;;;;;4928360;29;20216;-72
2023/01/13 07:55:16;;;;;;;5.70;1.08;;;10.40;99.90;;;;;;4936183;29;20208;-71
2023/01/13 07:57:42;;;;;;;2.67;0.90;;;10.40;99.90;;;;;;4930313;29;20208;-71
2023/01/13 08:00:08;;;;;;;2.50;0.70;;;10.40;99.90;;;;;;4922242;29;20195;-72
2023/01/13 08:02:36;;;;;;;2.58;0.70;;;10.20;99.90;;;;;;4923450;29;20235;-71
2023/01/13 08:05:02;;;;;;;1.30;0.70;;;10.10;99.90;;;;;;4936269;29;20201;-71
2023/01/13 08:07:28;;;;;;;3.92;0.75;;;10.00;99.90;;;;;;4925187;29;20282;-71
2023/01/13 08:09:53;;;;;;;1.17;0.57;;;9.90;99.90;;;;;;4917255;29;20174;-71
2023/01/13 08:15:04;;;;;;;3.40;0.70;;;9.70;99.90;;;;;;4920458;29;20166;-71
2023/01/13 08:17:32;;;;;;;1.20;0.50;;;9.70;99.90;;;;;;4934365;29;20455;-70
2023/01/13 08:19:58;;;;;;;1.73;0.70;;;9.60;99.90;;;;;;4920867;29;20185;-70
2023/01/13 08:22:23;;;;;;;2.03;0.80;;;9.60;99.90;;;;;;4920767;29;20182;-71
2023/01/13 08:24:49;;;;;;;2.40;0.70;;;9.60;99.90;;;;;;4933969;29;20182;-71
2023/01/13 08:27:14;;;;;;;1.87;0.53;;;9.60;99.90;;;;;;4939833;29;20273;-71
2023/01/13 08:29:40;;;;;;;1.27;0.80;;;9.50;99.90;;;;;;4939113;29;20215;-73
2023/01/13 08:32:06;;;;;;;2.30;0.90;;;9.50;99.90;;;;;;4939583;29;20173;-71
2023/01/13 08:34:31;;;;;;;4.63;0.90;;;9.50;99.90;;;;;;4939228;29;20191;-70
2023/01/13 08:36:57;;;;;;;3.63;0.90;;;9.40;99.90;;;;;;4938995;29;20197;-71
2023/01/13 08:39:23;;;;;;;4.23;1.27;;;9.40;99.90;;;;;;4939459;29;20170;-72
2023/01/13 08:41:57;;;;;;;4.73;1.30;;;9.40;99.90;;;;;;4939102;29;20248;-72
2023/01/13 08:44:27;;;;;;;3.53;1.00;;;9.50;99.90;;;;;;4938686;29;20193;-71
2023/01/13 08:46:57;;;;;;;6.87;1.40;;;9.50;99.90;;;;;;4939349;29;20200;-72
2023/01/13 08:49:23;;;;;;;5.50;1.33;;;9.50;99.90;;;;;;4939300;29;20174;-72
2023/01/13 08:51:50;;;;;;;5.03;1.30;;;9.50;99.90;;;;;;4936792;29;20216;-72
2023/01/13 08:54:16;;;;;;;7.00;1.70;;;9.60;99.90;;;;;;4919758;29;20185;-71
2023/01/13 08:56:43;;;;;;;5.83;1.43;;;9.60;99.90;;;;;;4919860;29;20178;-71
2023/01/13 08:59:13;;;;;;;6.73;1.30;;;9.70;99.90;;;;;;4919952;29;20178;-73
2023/01/13 09:01:39;;;;;;;5.93;1.57;;;9.80;99.90;;;;;;4919908;29;20210;-71
2023/01/13 09:04:07;;;;;;;6.40;1.60;;;9.90;99.90;;;;;;4919919;29;20202;-71
2023/01/13 09:06:32;;;;;;;7.37;1.63;;;9.90;99.90;;;;;;4920242;29;20175;-71
2023/01/13 09:08:59;;;;;;;5.63;1.50;;;10.00;99.90;;;;;;4922204;29;20216;-72
2023/01/13 09:14:24;;;;;;;9.60;2.10;;;10.30;99.90;;;;;;4939712;29;20191;-71
2023/01/13 09:16:55;;;;;;;6.38;1.63;;;10.50;99.90;;;;;;4938786;29;20209;-72
2023/01/13 09:19:20;;;;;;;9.68;1.63;;;10.80;99.90;;;;;;4938894;29;20264;-72
2023/01/13 09:21:46;;;;;;;5.20;1.38;;;11.00;99.90;;;;;;4926718;29;20209;-72
2023/01/13 09:24:14;;;;;;;6.82;2.10;;;11.00;99.90;;;;;;4921675;29;20218;-73
2023/01/13 09:26:40;;;;;;;6.45;1.60;;;11.10;99.90;;;;;;4934846;29;20181;-73
2023/01/13 09:29:05;;;;;;;6.00;1.63;;;11.20;99.90;;;;;;4938768;29;20200;-73
2023/01/13 09:31:34;;;;;;;8.38;1.80;;;11.30;99.90;;;;;;4938363;29;20170;-73
2023/01/13 09:36:48;;;;;;;5.90;1.58;;;11.50;99.90;;;;;;4920245;29;20165;-72
2023/01/13 09:39:19;;;;;;;7.97;1.55;;;11.60;99.90;;;;;;4919278;29;20186;-71
2023/01/13 09:44:44;;;;;;;5.75;1.48;;;11.70;99.90;;;;;;4939093;29;20252;-71
2023/01/13 09:47:44;;;;;;;8.23;1.80;;;11.90;99.90;;;;;;4938465;29;20200;-72
2023/01/13 09:50:12;;;;;;;5.13;1.48;;;11.90;99.90;;;;;;4919487;29;20182;-72
2023/01/13 09:52:41;;;;;;;6.53;1.75;;;12.00;99.90;;;;;;4919452;29;20296;-72
2023/01/13 09:55:24;;;;;;;6.80;1.40;;;12.10;99.90;;;;;;4935506;29;20271;-73
2023/01/13 09:57:49;;;;;;;6.35;1.60;;;12.20;99.90;;;;;;4927393;29;20213;-72
2023/01/13 10:00:21;;;;;;;9.48;1.67;;;12.20;99.90;;;;;;4919001;29;20193;-73
2023/01/13 10:02:52;;;;;;;4.47;1.45;;;12.30;99.90;;;;;;4934484;29;20205;-72
2023/01/13 10:05:33;;;;;;;5.78;1.40;;;12.30;99.90;;;;;;4937655;29;20173;-71
2023/01/13 10:08:04;;;;;;;4.75;1.55;;;12.40;99.90;;;;;;4937805;29;20226;-72
2023/01/13 10:10:45;;;;;;;3.80;1.33;;;12.40;99.90;;;;;;4937771;29;20207;-72
2023/01/13 10:13:19;;;;;;;8.65;1.92;;;12.50;99.90;;;;;;4937968;29;20180;-72
2023/01/13 10:15:55;;;;;;;7.82;2.00;;;12.50;99.90;;;;;;4937736;29;20169;-72
2023/01/13 10:18:50;;;;;;;6.95;1.73;;;12.50;99.90;;;;;;4937289;29;20201;-71
2023/01/13 10:21:48;;;;;;;6.80;1.75;;;12.50;99.90;;;;;;4910194;29;20212;-72
2023/01/13 10:24:22;;;;;;;9.10;1.52;;;12.50;99.90;;;;;;4936063;29;20212;-74
2023/01/13 10:27:03;;;;;;;7.60;2.03;;;12.60;99.90;;;;;;4918743;29;20172;-72
2023/01/13 10:29:31;;;;;;;7.38;1.98;;;12.60;99.90;;;;;;4918234;29;20451;-72
2023/01/13 10:31:58;;;;;;;6.03;1.50;;;12.60;99.90;;;;;;4936992;29;20174;-72
2023/01/13 10:34:27;;;;;;;5.43;1.63;;;12.70;99.90;;;;;;4937424;29;20187;-72
2023/01/13 10:36:59;;;;;;;6.28;1.60;;;12.80;99.90;;;;;;4936999;29;20185;-73
2023/01/13 10:39:24;;;;;;;5.70;1.55;;;12.80;99.90;;;;;;4937255;29;20178;-72
2023/01/13 10:42:02;;;;;;;6.85;1.90;;;12.80;99.90;;;;;;4937086;29;20234;-72
2023/01/13 10:44:30;;;;;;;7.72;1.80;;;12.80;99.90;;;;;;4936956;29;20197;-72
2023/01/13 10:46:58;;;;;;;6.65;1.80;;;12.70;99.90;;;;;;4937283;29;20208;-70
2023/01/13 10:49:35;;;;;;;7.43;1.80;;;12.70;99.90;;;;;;4936980;29;20191;-71
2023/01/13 10:52:03;;;;;;;6.88;1.80;;;12.50;99.90;;;;;;4937873;29;20204;-71
2023/01/13 10:54:32;;;;;;;7.20;1.70;;;12.50;99.90;;;;;;4936986;29;20272;-71
2023/01/13 10:57:20;;;;;;;7.55;1.75;;;12.50;99.90;;;;;;4936843;29;20240;-73
2023/01/13 10:59:49;;;;;;;9.05;1.63;;;12.40;99.90;;;;;;4936985;29;20185;-73
2023/01/13 11:02:29;;;;;;;7.75;1.80;;;12.40;99.90;;;;;;4936783;29;20229;-72
2023/01/13 11:04:59;;;;;;;5.18;1.60;;;12.40;99.90;;;;;;4936899;29;20181;-73
2023/01/13 11:07:35;;;;;;;7.90;1.98;;;12.40;99.90;;;;;;4936727;29;20222;-72
2023/01/13 11:10:27;;;;;;;7.78;1.85;;;12.50;99.90;;;;;;4921315;29;20176;-71
2023/01/13 11:13:15;;;;;;;6.60;1.73;;;12.50;99.90;;;;;;4917961;29;20181;-70
2023/01/13 11:16:05;;;;;;;7.13;1.70;;;12.50;99.90;;;;;;4917760;29;20181;-71
2023/01/13 11:19:01;;;;;;;7.93;2.00;;;12.50;99.90;;;;;;4917787;29;20234;-72
2023/01/13 11:21:42;;;;;;;7.20;1.92;;;12.60;99.90;;;;;;4917978;29;20181;-71
2023/01/13 11:24:34;;;;;;;7.47;1.92;;;12.60;99.90;;;;;;4917671;29;20201;-72
2023/01/13 11:27:03;;;;;;;5.68;1.67;;;12.60;99.90;;;;;;4917836;29;20170;-72
2023/01/13 11:29:58;;;;;;;7.90;2.28;;;12.60;99.90;;;;;;4928334;29;20296;-72
2023/01/13 11:32:30;;;;;;;8.45;2.28;;;12.60;99.90;;;;;;4936646;29;20225;-72
2023/01/13 11:35:02;;;;;;;7.18;1.75;;;12.60;99.90;;;;;;4932456;29;20174;-71
2023/01/13 11:37:36;;;;;;;7.65;2.22;;;12.70;99.90;;;;;;4917683;29;20162;-71
2023/01/13 11:40:11;;;;;;;6.43;1.55;;;12.70;99.90;;;;;;4918046;29;20173;-71
2023/01/13 11:42:36;;;;;;;5.25;1.80;;;12.80;99.90;;;;;;4921861;29;20186;-73
2023/01/13 11:45:08;;;;;;;7.50;1.90;;;12.80;99.90;;;;;;4917773;29;20233;-71
2023/01/13 11:47:37;;;;;;;4.95;1.40;;;12.80;99.90;;;;;;4917570;29;20209;-72
2023/01/13 11:50:12;;;;;;;5.85;1.52;;;12.80;99.90;;;;;;4928273;29;20181;-71
2023/01/13 11:53:00;;;;;;;4.47;1.50;;;12.80;99.90;;;;;;4941354;29;20208;-74
2023/01/13 11:55:31;;;;;;;4.88;1.35;;;12.80;99.90;;;;;;4941149;29;20173;-72
2023/01/13 11:58:04;;;;;;;5.43;1.45;;;12.90;99.90;;;;;;4921699;29;20277;-73
2023/01/13 12:00:44;;;;;;;4.95;1.45;;;13.00;99.90;;;;;;4937698;29;20284;-72
2023/01/13 12:03:11;;;;;;;6.07;1.75;;;13.00;99.90;;;;;;4941098;29;20323;-71
2023/01/13 12:05:41;;;;;;;6.22;1.65;;;13.00;99.90;;;;;;4940002;29;20391;-72
2023/01/13 12:08:30;;;;;;;5.68;1.73;;;12.90;99.90;;;;;;4939934;29;20491;-72
2023/01/13 12:11:00;;;;;;;5.63;1.60;;;12.80;99.90;;;;;;4955542;29;20181;-71
2023/01/13 12:13:25;;;;;;;5.68;1.70;;;12.70;99.90;;;;;;4939751;29;20177;-70
2023/01/13 12:16:12;;;;;;;7.78;1.52;;;12.60;99.90;;;;;;4940015;29;20299;-71
2023/01/13 12:18:59;;;;;;;3.35;1.10;;;12.30;99.90;;;;;;4942561;29;20236;-71
2023/01/13 12:21:30;;;;;;;6.80;1.48;;;12.00;99.90;;;;;;4943483;29;20197;-70
2023/01/13 12:24:30;;;;;;;2.78;1.40;;;11.70;99.90;;;;;;4941400;29;20220;-71
2023/01/13 12:27:14;;;;;;;4.40;1.25;;;11.50;99.90;;;;;;4938160;29;20225;-70
2023/01/13 12:29:40;;;;;;;4.10;1.33;;;11.30;99.90;;;;;;4939593;29;20209;-70
2023/01/13 12:32:23;;;;;;;5.45;1.60;;;11.20;99.90;;;;;;4940031;29;20193;-70
2023/01/13 12:35:07;;;;;;;5.40;1.25;;;11.20;99.90;;;;;;4941024;29;20181;-69
2023/01/13 12:37:41;;;;;;;7.63;1.63;;;11.20;99.90;;;;;;4939962;29;20229;-69
2023/01/13 12:40:45;;;;;;;5.20;1.60;;;11.20;99.90;;;;;;4940040;29;20180;-69
2023/01/13 12:46:17;;;;;;;7.32;1.65;;;11.30;99.90;;;;;;4940757;29;20168;-70
2023/01/13 12:49:00;;;;;;;5.45;1.65;;;11.40;99.90;;;;;;4939420;29;20165;-69
2023/01/13 12:51:31;;;;;;;5.70;1.90;;;11.40;99.90;;;;;;4939666;29;20162;-70
2023/01/13 12:53:58;;;;;;;7.90;1.70;;;11.40;99.90;;;;;;4939317;29;20292;-69
2023/01/13 12:56:47;;;;;;;8.73;1.73;;;11.50;99.90;;;;;;4939545;29;20213;-71
2023/01/13 12:59:18;;;;;;;5.40;1.38;;;11.60;99.90;;;;;;4938549;29;20229;-69
2023/01/13 13:01:46;;;;;;;4.57;1.33;;;11.60;99.90;;;;;;4939683;29;20177;-70
2023/01/13 13:04:20;;;;;;;7.45;1.92;;;11.70;99.90;;;;;;4938805;29;20372;-70
2023/01/13 13:07:07;;;;;;;7.43;1.88;;;11.70;99.90;;;;;;4939475;29;20173;-71
2023/01/13 13:09:45;;;;;;;9.43;2.00;;;11.70;99.90;;;;;;4919957;29;20221;-70
2023/01/13 13:15:25;;;;;;;4.90;1.40;;;11.70;99.90;;;;;;4939622;29;20264;-69
2023/01/13 13:18:02;;;;;;;7.25;1.60;;;11.70;99.90;;;;;;4938867;29;20184;-70
2023/01/13 13:21:07;;;;;;;5.32;1.60;;;11.70;99.90;;;;;;4938891;29;20201;-70
2023/01/13 13:23:36;;;;;;;5.30;1.92;;;11.70;99.90;;;;;;4938537;29;20200;-70
2023/01/13 13:26:39;;;;;;;8.13;1.90;;;11.70;99.90;;;;;;4938843;29;20228;-71
2023/01/13 13:29:57;;;;;;;4.25;1.23;;;11.70;99.90;;;;;;4919476;29;20277;-71
2023/01/13 13:33:00;;;;;;;4.63;1.33;;;11.80;99.90;;;;;;4913835;29;20205;-71
2023/01/13 13:35:51;;;;;;;6.93;1.85;;;11.70;99.90;;;;;;4937562;29;20177;-72
2023/01/13 13:47:12;;;;;;;6.05;1.73;;;11.70;99.90;;;;;;4919995;29;20174;-72
2023/01/13 13:49:44;;;;;;;3.72;1.40;;;11.70;99.90;;;;;;4938375;29;20296;-73
2023/01/13 13:52:21;;;;;;;5.35;1.60;;;11.70;99.90;;;;;;4938216;29;20265;-72
2023/01/13 13:54:55;;;;;;;6.20;1.25;;;11.70;99.90;;;;;;4930393;29;20201;-72
2023/01/13 13:57:29;;;;;;;7.28;1.52;;;11.80;99.90;;;;;;4937908;29;20203;-72
2023/01/13 13:59:57;;;;;;;5.15;1.52;;;11.80;99.90;;;;;;4937894;29;20294;-73
2023/01/13 14:02:29;;;;;;;4.15;1.52;;;11.80;99.90;;;;;;4937851;29;20181;-73
2023/01/13 14:05:28;;;;;;;5.50;1.50;;;11.80;99.90;;;;;;4934537;29;20229;-72
2023/01/13 14:08:08;;;;;;;4.95;1.25;;;11.80;99.90;;;;;;4925504;29;20188;-79
2023/01/13 14:10:37;;;;;;;4.78;1.50;;;11.80;99.90;;;;;;4919809;29;20265;-81
2023/01/13 14:13:13;;;;;;;3.05;1.13;;;11.80;99.90;;;;;;4928386;29;20200;-81
2023/01/13 14:15:41;;;;;;;5.53;1.52;;;11.80;99.90;;;;;;4927237;29;20216;-82